Shikarpur Weather



Shikarpur's Current Weather

Temprature 40o haze

haze

Rain: 0 %

Min Temprature40o
Max Temprature40o
Humidity25
Wind Speed3.09 m/h
Sun Rise05:40:23
Sun Set19:03:31
Current Time: 08-May-2021 15:04:35
Lat/Lon: 27.9571, 68.6379




Shikarpur's Geo Location



Shikarpur's Weather Forecast

Time Overall Temp Min Temp Max Temp Humidity Wind Speed Rain
08-May-2021 (Sat)
17:00:00 broken clouds 40.160 40.160 40.470 20 2.48 m/h 0 %
20:00:00 broken clouds 36.030 34.050 36.030 23 7.14 m/h 0 %
23:00:00 broken clouds 32.470 32.470 32.470 26 5.31 m/h 0 %
09-May-2021 (Sun)
02:00:00 scattered clouds 30.840 30.840 30.840 29 2.13 m/h 0 %
05:00:00 scattered clouds 29.500 29.500 29.500 30 2.27 m/h 0 %
08:00:00 broken clouds 34.060 34.060 34.060 24 1.99 m/h 0 %
11:00:00 broken clouds 40.310 40.310 40.310 15 3.08 m/h 0 %
14:00:00 few clouds 43.300 43.300 43.300 10 3.93 m/h 0 %
17:00:00 scattered clouds 42.730 42.730 42.730 9 4.35 m/h 0 %
20:00:00 broken clouds 36.210 36.210 36.210 16 3.47 m/h 0 %
23:00:00 scattered clouds 32.960 32.960 32.960 25 4.64 m/h 0 %
10-May-2021 (Mon)
02:00:00 overcast clouds 31.870 31.870 31.870 26 4.69 m/h 0 %
05:00:00 overcast clouds 30.110 30.110 30.110 30 2.72 m/h 0 %
08:00:00 broken clouds 34.010 34.010 34.010 24 3.46 m/h 0 %
11:00:00 broken clouds 39.850 39.850 39.850 15 2.12 m/h 0 %
14:00:00 clear sky 43.290 43.290 43.290 10 3.31 m/h 0 %
17:00:00 clear sky 43.120 43.120 43.120 9 4.1 m/h 0 %
20:00:00 clear sky 38.460 38.460 38.460 12 2.59 m/h 0 %
23:00:00 clear sky 34.730 34.730 34.730 19 5.79 m/h 0 %
11-May-2021 (Tue)
02:00:00 scattered clouds 33.000 33.000 33.000 24 2.23 m/h 0 %
05:00:00 few clouds 31.130 31.130 31.130 27 0.98 m/h 0 %
08:00:00 clear sky 35.590 35.590 35.590 21 2.82 m/h 0 %
11:00:00 clear sky 41.290 41.290 41.290 13 3.01 m/h 0 %
14:00:00 clear sky 43.910 43.910 43.910 9 1.98 m/h 0 %
17:00:00 scattered clouds 44.090 44.090 44.090 8 2.56 m/h 0 %
20:00:00 light rain 36.970 36.970 36.970 17 4.83 m/h 13 %
23:00:00 broken clouds 36.940 36.940 36.940 15 2.91 m/h 0 %
12-May-2021 (Wed)
02:00:00 overcast clouds 33.620 33.620 33.620 20 1.64 m/h 0 %
05:00:00 broken clouds 32.210 32.210 32.210 16 2.29 m/h 0 %
08:00:00 clear sky 36.560 36.560 36.560 9 2.99 m/h 0 %
11:00:00 clear sky 41.400 41.400 41.400 6 2.88 m/h 0 %
14:00:00 clear sky 43.520 43.520 43.520 5 2.91 m/h 0 %
17:00:00 clear sky 43.450 43.450 43.450 4 3.16 m/h 0 %
20:00:00 clear sky 38.220 38.220 38.220 7 1.92 m/h 0 %
23:00:00 clear sky 35.010 35.010 35.010 8 3.27 m/h 0 %
13-May-2021 (Thu)
02:00:00 clear sky 30.290 30.290 30.290 31 6.99 m/h 0 %
05:00:00 clear sky 28.270 28.270 28.270 44 6.65 m/h 0 %
08:00:00 clear sky 31.290 31.290 31.290 37 7.95 m/h 0 %
11:00:00 clear sky 37.860 37.860 37.860 22 5.98 m/h 0 %
14:00:00 clear sky 41.580 41.580 41.580 12 4.69 m/h 0 %

Famous Cities (60)